Date,TemperatureHighF,TemperatureAvgF,TemperatureLowF,DewpointHighF,DewpointAvgF,DewpointLowF,HumidityHigh,HumidityAvg,HumidityLow,PressureMaxIn,PressureMinIn,WindSpeedMaxMPH,WindSpeedAvgMPH,GustSpeedMaxMPH,PrecipitationSumIn
2013-2-1,42,36,30,36,33,28,100,90,75,30.32,30.06,2,0,2,0.00
2013-2-2,37,30,24,34,28,22,96,91,86,30.40,30.20,0,0,3,0.00
2013-2-3,39,29,20,34,27,19,99,90,78,30.21,30.01,0,0,1,0.00
2013-2-4,42,37,33,34,32,30,90,83,74,30.01,29.94,5,0,13,0.00
2013-2-5,42,35,30,37,32,28,94,88,73,29.98,29.74,3,0,3,0.00
2013-2-6,40,35,28,35,31,25,94,85,73,30.06,29.86,7,0,7,0.00
2013-2-7,38,30,25,34,28,23,99,91,83,30.04,29.91,0,0,0,0.00
2013-2-8,39,30,23,34,28,21,100,91,80,30.04,29.95,0,0,1,0.00
2013-2-9,31,26,20,29,24,18,98,92,87,30.11,29.95,0,0,0,0.00
2013-2-10,33,26,21,31,24,19,98,94,88,30.20,30.10,0,0,0,0.00
2013-2-11,34,27,18,30,24,16,100,89,82,30.14,30.09,0,0,0,0.00
2013-2-12,39,34,30,33,27,28,94,77,76,30.16,30.03,5,0,5,0.00
2013-2-13,45,38,29,35,32,25,96,78,61,30.20,29.97,8,0,14,0.00
2013-2-14,40,31,24,30,25,21,94,80,61,30.41,30.20,3,0,8,0.00
2013-2-15,40,29,22,34,25,19,95,87,75,30.46,30.26,0,0,3,0.00
2013-2-16,36,32,23,36,30,21,100,94,90,30.27,29.82,6,0,6,0.00
2013-2-17,38,33,30,36,31,28,97,92,85,30.05,29.83,2,0,2,0.00
2013-2-18,37,27,19,31,24,17,95,89,75,30.08,29.84,0,0,0,0.00
2013-2-19,38,30,23,31,26,21,96,87,68,29.84,29.69,0,0,0,0.00
2013-2-20,39,31,25,31,27,21,97,84,63,29.94,29.81,1,0,1,0.00
2013-2-21,36,28,20,30,24,16,93,84,70,29.99,29.90,2,0,2,0.00
2013-2-22,39,34,27,32,31,25,96,88,76,29.91,29.61,4,0,4,0.00
2013-2-23,38,32,26,32,26,22,95,78,68,30.12,29.60,6,0,6,0.00
2013-2-24,38,30,19,29,24,16,93,79,66,30.22,30.09,5,0,5,0.00
2013-2-25,40,33,29,32,28,26,88,82,68,30.10,29.83,6,0,6,0.00
2013-2-26,38,32,26,30,26,24,92,79,65,30.25,29.98,5,0,5,0.00
2013-2-27,40,31,25,31,26,22,88,81,66,30.24,30.16,5,0,5,0.00
2013-2-28,40,34,28,35,30,25,93,88,80,30.29,30.20,0,0,0,0.00